Oslo Bulk 1 — 9V8766 — position and weather

sailwx.info

Track history (hours):
 
Tides and Currents Weather Stations Pressure Air Temp Water Temp Dewpoint Dewpoint Depression Visibility Wind Speed Wind Dir Waves Ship Positions

Oslo Bulk 1

Last reported at 2017-Sep-23 21:32 UTC. Time now 2017-Sep-25 10:03 UTC.
Position N 01°25' E 104°32'.

Length 108 m; draft 4.1 m.

Type: Cargo ship. MMSI: 564010000.

Date/timePositionNaut miles runAvg speedWind from/ knotsBaromVisibWave heightAir tempDewpointWater temp
2017-Sep-23 21:32N 01°25' E 104°32'413.0
2017-Sep-23 21:15N 01°24' E 104°28'312.9
2017-Sep-23 21:00N 01°22' E 104°26'21 0.5
2017-Sep-22 01:55N 01°20' E 104°05'8 7.5
2017-Sep-22 00:50N 01°24' E 103°57'2 0.8
2017-Sep-21 22:22N 01°25' E 103°56'1 1.8
2017-Sep-21 22:00N 01°24' E 103°56'1 2.5
2017-Sep-21 21:25N 01°24' E 103°57'7 0.7
2017-Sep-21 11:14N 01°21' E 104°04'5 1.5
2017-Sep-21 07:54N 01°18' E 104°08'0 0.0
2017-Sep-21 05:36N 01°18' E 104°08'313.8
2017-Sep-21 05:24N 01°15' E 104°08'4 3.6
2017-Sep-21 04:22N 01°15' E 104°04'2 3.9
2017-Sep-21 03:58N 01°14' E 104°02'919.5
2017-Sep-21 03:30N 01°16' E 103°53'0 0.0
2017-Sep-21 02:41N 01°16' E 103°53'0 0.0
2017-Sep-21 02:13N 01°16' E 103°53'0 0.0
2017-Sep-21 01:46N 01°16' E 103°53'0 0.0
2017-Sep-21 01:26N 01°16' E 103°53'0 0.0
2017-Sep-21 00:48N 01°16' E 103°53'0 0.4
2017-Sep-21 00:28N 01°16' E 103°53'0 0.0
2017-Sep-20 23:52N 01°16' E 103°53'0 0.0
2017-Sep-20 23:29N 01°16' E 103°53'0 0.0
2017-Sep-20 22:55N 01°16' E 103°53'0 0.0
2017-Sep-20 22:30N 01°16' E 103°53'0 0.0
2017-Sep-20 21:59N 01°16' E 103°53'0 0.0
2017-Sep-20 20:17N 01°16' E 103°53'0 0.3
2017-Sep-20 19:52N 01°16' E 103°53'1014.0
2017-Sep-20 19:07N 01°15' E 104°04'212.1
2017-Sep-20 19:00N 01°14' E 104°02'611.5
2017-Sep-20 18:30N 01°14' E 103°57'3 5.7
2017-Sep-20 18:00N 01°15' E 103°54'4 6.8
2017-Sep-20 17:28N 01°15' E 103°58'1 2.2
2017-Sep-20 16:55N 01°15' E 103°59'1 2.2
2017-Sep-20 16:30N 01°15' E 103°60'1 2.4
2017-Sep-20 16:00N 01°16' E 104°01'712.6
2017-Sep-20 15:25N 01°16' E 103°53'0 0.2
2017-Sep-20 15:01N 01°16' E 103°53'0 0.1
2017-Sep-20 14:01N 01°16' E 103°53'0 0.0
2017-Sep-20 13:25N 01°16' E 103°53'0 0.0
2017-Sep-20 13:01N 01°15' E 103°53'0 0.0
2017-Sep-20 12:25N 01°15' E 103°53'0 0.0
2017-Sep-20 11:55N 01°16' E 103°53'0 0.0
2017-Sep-20 11:25N 01°16' E 103°53'0 0.1
2017-Sep-20 11:00N 01°16' E 103°53'0 0.0
2017-Sep-20 10:31N 01°16' E 103°53'0 0.1
2017-Sep-20 08:43N 01°16' E 103°53'0 0.3
2017-Sep-20 08:30N 01°16' E 103°53'1 2.3
2017-Sep-20 08:00N 01°15' E 103°54'2 3.0
2017-Sep-20 07:27N 01°14' E 103°56'4 7.8
2017-Sep-20 06:59N 01°15' E 103°59'  
Track history (hours):
 
Tides and Currents Weather Stations Pressure Air Temp Water Temp Dewpoint Dewpoint Depression Visibility Wind Speed Wind Dir Waves Ship Positions

Oslo Bulk 1

Last reported at 2017-Sep-23 21:32 UTC. Time now 2017-Sep-25 10:03 UTC.
Position N 01°25' E 104°32'.

Length 108 m; draft 4.1 m.

Type: Cargo ship. MMSI: 564010000.

Date/timePositionNaut miles runAvg speedWind from/ knotsBaromVisibWave heightAir tempDewpointWater temp
2017-Sep-23 21:32N 01°25' E 104°32'413.0
2017-Sep-23 21:15N 01°24' E 104°28'312.9
2017-Sep-23 21:00N 01°22' E 104°26'21 0.5
2017-Sep-22 01:55N 01°20' E 104°05'8 7.5
2017-Sep-22 00:50N 01°24' E 103°57'2 0.8
2017-Sep-21 22:22N 01°25' E 103°56'1 1.8
2017-Sep-21 22:00N 01°24' E 103°56'1 2.5
2017-Sep-21 21:25N 01°24' E 103°57'7 0.7
2017-Sep-21 11:14N 01°21' E 104°04'5 1.5
2017-Sep-21 07:54N 01°18' E 104°08'0 0.0
2017-Sep-21 05:36N 01°18' E 104°08'313.8
2017-Sep-21 05:24N 01°15' E 104°08'4 3.6
2017-Sep-21 04:22N 01°15' E 104°04'2 3.9
2017-Sep-21 03:58N 01°14' E 104°02'919.5
2017-Sep-21 03:30N 01°16' E 103°53'0 0.0
2017-Sep-21 02:41N 01°16' E 103°53'0 0.0
2017-Sep-21 02:13N 01°16' E 103°53'0 0.0
2017-Sep-21 01:46N 01°16' E 103°53'0 0.0
2017-Sep-21 01:26N 01°16' E 103°53'0 0.0
2017-Sep-21 00:48N 01°16' E 103°53'0 0.4
2017-Sep-21 00:28N 01°16' E 103°53'0 0.0
2017-Sep-20 23:52N 01°16' E 103°53'0 0.0
2017-Sep-20 23:29N 01°16' E 103°53'0 0.0
2017-Sep-20 22:55N 01°16' E 103°53'0 0.0
2017-Sep-20 22:30N 01°16' E 103°53'0 0.0
2017-Sep-20 21:59N 01°16' E 103°53'0 0.0
2017-Sep-20 20:17N 01°16' E 103°53'0 0.3
2017-Sep-20 19:52N 01°16' E 103°53'1014.0
2017-Sep-20 19:07N 01°15' E 104°04'212.1
2017-Sep-20 19:00N 01°14' E 104°02'611.5
2017-Sep-20 18:30N 01°14' E 103°57'3 5.7
2017-Sep-20 18:00N 01°15' E 103°54'4 6.8
2017-Sep-20 17:28N 01°15' E 103°58'1 2.2
2017-Sep-20 16:55N 01°15' E 103°59'1 2.2
2017-Sep-20 16:30N 01°15' E 103°60'1 2.4
2017-Sep-20 16:00N 01°16' E 104°01'712.6
2017-Sep-20 15:25N 01°16' E 103°53'0 0.2
2017-Sep-20 15:01N 01°16' E 103°53'0 0.1
2017-Sep-20 14:01N 01°16' E 103°53'0 0.0
2017-Sep-20 13:25N 01°16' E 103°53'0 0.0
2017-Sep-20 13:01N 01°15' E 103°53'0 0.0
2017-Sep-20 12:25N 01°15' E 103°53'0 0.0
2017-Sep-20 11:55N 01°16' E 103°53'0 0.0
2017-Sep-20 11:25N 01°16' E 103°53'0 0.1
2017-Sep-20 11:00N 01°16' E 103°53'0 0.0
2017-Sep-20 10:31N 01°16' E 103°53'0 0.1
2017-Sep-20 08:43N 01°16' E 103°53'0 0.3
2017-Sep-20 08:30N 01°16' E 103°53'1 2.3
2017-Sep-20 08:00N 01°15' E 103°54'2 3.0
2017-Sep-20 07:27N 01°14' E 103°56'4 7.8
2017-Sep-20 06:59N 01°15' E 103°59'  

Dump ship's entire track history